sensor_id;sensor_type;location;lat;lon;timestamp;temperature;humidity
16578;DHT22;8401;52.528;13.340;2023-11-21T00:00:26;8.30;99.90
16578;DHT22;8401;52.528;13.340;2023-11-21T00:02:51;8.20;99.90
16578;DHT22;8401;52.528;13.340;2023-11-21T00:05:17;8.10;99.90
16578;DHT22;8401;52.528;13.340;2023-11-21T00:07:43;8.00;99.90
16578;DHT22;8401;52.528;13.340;2023-11-21T00:10:10;8.10;99.90
16578;DHT22;8401;52.528;13.340;2023-11-21T00:12:37;8.10;99.90
16578;DHT22;8401;52.528;13.340;2023-11-21T00:15:03;8.10;99.90
16578;DHT22;8401;52.528;13.340;2023-11-21T00:17:30;8.00;99.90
16578;DHT22;8401;52.528;13.340;2023-11-21T00:19:56;8.00;99.90
16578;DHT22;8401;52.528;13.340;2023-11-21T00:22:22;7.80;99.90
16578;DHT22;8401;52.528;13.340;2023-11-21T00:24:48;7.60;99.90
16578;DHT22;8401;52.528;13.340;2023-11-21T00:27:14;7.60;99.90
16578;DHT22;8401;52.528;13.340;2023-11-21T00:29:40;7.60;99.90
16578;DHT22;8401;52.528;13.340;2023-11-21T00:32:07;7.60;99.90
16578;DHT22;8401;52.528;13.340;2023-11-21T00:34:33;7.70;99.90
16578;DHT22;8401;52.528;13.340;2023-11-21T00:36:59;7.60;99.90
16578;DHT22;8401;52.528;13.340;2023-11-21T00:39:25;7.60;99.90
16578;DHT22;8401;52.528;13.340;2023-11-21T00:41:52;7.50;99.90
16578;DHT22;8401;52.528;13.340;2023-11-21T00:44:18;7.40;99.90
16578;DHT22;8401;52.528;13.340;2023-11-21T00:46:43;7.40;99.90
16578;DHT22;8401;52.528;13.340;2023-11-21T00:49:09;7.40;99.90
16578;DHT22;8401;52.528;13.340;2023-11-21T00:51:34;7.30;99.90
16578;DHT22;8401;52.528;13.340;2023-11-21T00:54:02;7.30;99.90
16578;DHT22;8401;52.528;13.340;2023-11-21T00:56:28;7.30;99.90
16578;DHT22;8401;52.528;13.340;2023-11-21T00:58:53;7.30;99.90
16578;DHT22;8401;52.528;13.340;2023-11-21T01:01:21;7.20;99.90
16578;DHT22;8401;52.528;13.340;2023-11-21T01:03:48;7.30;99.90
16578;DHT22;8401;52.528;13.340;2023-11-21T01:06:14;7.30;99.90
16578;DHT22;8401;52.528;13.340;2023-11-21T01:08:40;7.30;99.90
16578;DHT22;8401;52.528;13.340;2023-11-21T01:11:06;7.30;99.90
16578;DHT22;8401;52.528;13.340;2023-11-21T01:13:37;7.30;99.90
16578;DHT22;8401;52.528;13.340;2023-11-21T01:16:03;7.40;99.90
16578;DHT22;8401;52.528;13.340;2023-11-21T01:18:29;7.40;99.90
16578;DHT22;8401;52.528;13.340;2023-11-21T01:20:54;7.40;99.90
16578;DHT22;8401;52.528;13.340;2023-11-21T01:23:20;7.30;99.90
16578;DHT22;8401;52.528;13.340;2023-11-21T01:25:46;7.20;99.90
16578;DHT22;8401;52.528;13.340;2023-11-21T01:28:11;7.20;99.90
16578;DHT22;8401;52.528;13.340;2023-11-21T01:30:37;7.10;99.90
16578;DHT22;8401;52.528;13.340;2023-11-21T01:33:03;7.20;99.90
16578;DHT22;8401;52.528;13.340;2023-11-21T01:35:29;7.20;99.90
16578;DHT22;8401;52.528;13.340;2023-11-21T01:37:54;7.10;99.90
16578;DHT22;8401;52.528;13.340;2023-11-21T01:40:20;7.10;99.90
16578;DHT22;8401;52.528;13.340;2023-11-21T01:42:46;7.30;99.90
16578;DHT22;8401;52.528;13.340;2023-11-21T01:45:13;7.20;99.90
16578;DHT22;8401;52.528;13.340;2023-11-21T01:47:41;7.10;99.90
16578;DHT22;8401;52.528;13.340;2023-11-21T01:50:08;7.10;99.90
16578;DHT22;8401;52.528;13.340;2023-11-21T01:52:37;7.20;99.90
16578;DHT22;8401;52.528;13.340;2023-11-21T01:55:05;7.10;99.90
16578;DHT22;8401;52.528;13.340;2023-11-21T01:57:31;7.10;99.90
16578;DHT22;8401;52.528;13.340;2023-11-21T01:59:58;7.00;99.90
16578;DHT22;8401;52.528;13.340;2023-11-21T02:02:44;6.90;99.90
16578;DHT22;8401;52.528;13.340;2023-11-21T02:05:11;7.10;99.90
16578;DHT22;8401;52.528;13.340;2023-11-21T02:07:39;7.10;99.90
16578;DHT22;8401;52.528;13.340;2023-11-21T02:10:06;7.00;99.90
16578;DHT22;8401;52.528;13.340;2023-11-21T02:12:34;6.90;99.90
16578;DHT22;8401;52.528;13.340;2023-11-21T02:15:04;6.90;99.90
16578;DHT22;8401;52.528;13.340;2023-11-21T02:17:35;7.10;99.90
16578;DHT22;8401;52.528;13.340;2023-11-21T02:20:01;6.90;99.90
16578;DHT22;8401;52.528;13.340;2023-11-21T02:22:31;7.10;99.90
16578;DHT22;8401;52.528;13.340;2023-11-21T02:24:58;6.90;99.90
16578;DHT22;8401;52.528;13.340;2023-11-21T02:27:24;7.00;99.90
16578;DHT22;8401;52.528;13.340;2023-11-21T02:29:50;6.90;99.90
16578;DHT22;8401;52.528;13.340;2023-11-21T02:32:16;6.90;99.90
16578;DHT22;8401;52.528;13.340;2023-11-21T02:34:44;6.80;99.90
16578;DHT22;8401;52.528;13.340;2023-11-21T02:37:10;6.70;99.90
16578;DHT22;8401;52.528;13.340;2023-11-21T02:39:36;6.80;99.90
16578;DHT22;8401;52.528;13.340;2023-11-21T02:42:01;6.90;99.90
16578;DHT22;8401;52.528;13.340;2023-11-21T02:44:27;6.80;99.90
16578;DHT22;8401;52.528;13.340;2023-11-21T02:46:53;6.70;99.90
16578;DHT22;8401;52.528;13.340;2023-11-21T02:49:18;6.70;99.90
16578;DHT22;8401;52.528;13.340;2023-11-21T02:51:44;6.70;99.90
16578;DHT22;8401;52.528;13.340;2023-11-21T02:54:09;6.70;99.90
16578;DHT22;8401;52.528;13.340;2023-11-21T02:56:35;6.70;99.90
16578;DHT22;8401;52.528;13.340;2023-11-21T02:59:01;6.80;99.90
16578;DHT22;8401;52.528;13.340;2023-11-21T03:01:27;6.90;99.90
16578;DHT22;8401;52.528;13.340;2023-11-21T03:03:53;6.90;99.90
16578;DHT22;8401;52.528;13.340;2023-11-21T03:06:20;6.90;99.90
16578;DHT22;8401;52.528;13.340;2023-11-21T03:08:47;6.70;99.90
16578;DHT22;8401;52.528;13.340;2023-11-21T03:11:13;6.70;99.90
16578;DHT22;8401;52.528;13.340;2023-11-21T03:13:42;6.70;99.90
16578;DHT22;8401;52.528;13.340;2023-11-21T03:16:11;6.90;99.90
16578;DHT22;8401;52.528;13.340;2023-11-21T03:18:38;6.80;99.90
16578;DHT22;8401;52.528;13.340;2023-11-21T03:21:07;7.00;99.90
16578;DHT22;8401;52.528;13.340;2023-11-21T03:23:37;6.90;99.90
16578;DHT22;8401;52.528;13.340;2023-11-21T03:26:03;6.70;99.90
16578;DHT22;8401;52.528;13.340;2023-11-21T03:28:29;6.60;99.90
16578;DHT22;8401;52.528;13.340;2023-11-21T03:30:55;6.70;99.90
16578;DHT22;8401;52.528;13.340;2023-11-21T03:33:21;6.70;99.90
16578;DHT22;8401;52.528;13.340;2023-11-21T03:35:48;6.60;99.90
16578;DHT22;8401;52.528;13.340;2023-11-21T03:38:13;6.80;99.90
16578;DHT22;8401;52.528;13.340;2023-11-21T03:40:40;6.90;99.90
16578;DHT22;8401;52.528;13.340;2023-11-21T03:43:06;6.70;99.90
16578;DHT22;8401;52.528;13.340;2023-11-21T03:45:32;6.60;99.90
16578;DHT22;8401;52.528;13.340;2023-11-21T03:47:57;6.70;99.90
16578;DHT22;8401;52.528;13.340;2023-11-21T03:50:23;6.90;99.90
16578;DHT22;8401;52.528;13.340;2023-11-21T03:52:49;6.70;99.90
16578;DHT22;8401;52.528;13.340;2023-11-21T03:55:14;6.80;99.90
16578;DHT22;8401;52.528;13.340;2023-11-21T03:57:40;6.80;99.90
16578;DHT22;8401;52.528;13.340;2023-11-21T04:00:10;6.80;99.90
16578;DHT22;8401;52.528;13.340;2023-11-21T04:02:38;6.60;99.90
16578;DHT22;8401;52.528;13.340;2023-11-21T04:05:05;6.60;99.90
16578;DHT22;8401;52.528;13.340;2023-11-21T04:07:32;6.60;99.90
16578;DHT22;8401;52.528;13.340;2023-11-21T04:09:58;6.50;99.90
16578;DHT22;8401;52.528;13.340;2023-11-21T04:12:24;6.50;99.90
16578;DHT22;8401;52.528;13.340;2023-11-21T04:14:50;6.40;99.90
16578;DHT22;8401;52.528;13.340;2023-11-21T04:17:18;6.40;99.90
16578;DHT22;8401;52.528;13.340;2023-11-21T04:19:44;6.30;99.90
16578;DHT22;8401;52.528;13.340;2023-11-21T04:22:11;6.40;99.90
16578;DHT22;8401;52.528;13.340;2023-11-21T04:24:37;6.40;99.90
16578;DHT22;8401;52.528;13.340;2023-11-21T04:27:03;6.40;99.90
16578;DHT22;8401;52.528;13.340;2023-11-21T04:29:28;6.50;99.90
16578;DHT22;8401;52.528;13.340;2023-11-21T04:31:55;6.50;99.90
16578;DHT22;8401;52.528;13.340;2023-11-21T04:34:20;6.60;99.90
16578;DHT22;8401;52.528;13.340;2023-11-21T04:36:46;6.60;99.90
16578;DHT22;8401;52.528;13.340;2023-11-21T04:39:12;6.50;99.90
16578;DHT22;8401;52.528;13.340;2023-11-21T04:41:37;6.50;99.90
16578;DHT22;8401;52.528;13.340;2023-11-21T04:44:05;6.40;99.90
16578;DHT22;8401;52.528;13.340;2023-11-21T04:46:31;6.40;99.90
16578;DHT22;8401;52.528;13.340;2023-11-21T04:48:57;6.50;99.90
16578;DHT22;8401;52.528;13.340;2023-11-21T04:51:23;6.50;99.90
16578;DHT22;8401;52.528;13.340;2023-11-21T04:53:49;6.60;99.90
16578;DHT22;8401;52.528;13.340;2023-11-21T04:56:14;6.50;99.90
16578;DHT22;8401;52.528;13.340;2023-11-21T04:58:41;6.60;99.90
16578;DHT22;8401;52.528;13.340;2023-11-21T05:01:10;6.60;99.90
16578;DHT22;8401;52.528;13.340;2023-11-21T05:03:35;6.70;99.90
16578;DHT22;8401;52.528;13.340;2023-11-21T05:06:01;6.50;99.90
16578;DHT22;8401;52.528;13.340;2023-11-21T05:08:27;6.40;99.90
16578;DHT22;8401;52.528;13.340;2023-11-21T05:10:53;6.60;99.90
16578;DHT22;8401;52.528;13.340;2023-11-21T05:13:19;6.30;99.90
16578;DHT22;8401;52.528;13.340;2023-11-21T05:15:45;6.40;99.90
16578;DHT22;8401;52.528;13.340;2023-11-21T05:18:11;6.40;99.90
16578;DHT22;8401;52.528;13.340;2023-11-21T05:20:39;6.40;99.90
16578;DHT22;8401;52.528;13.340;2023-11-21T05:23:06;6.50;99.90
16578;DHT22;8401;52.528;13.340;2023-11-21T05:25:33;6.60;99.90
16578;DHT22;8401;52.528;13.340;2023-11-21T05:27:59;6.60;99.90
16578;DHT22;8401;52.528;13.340;2023-11-21T05:30:26;6.70;99.90
16578;DHT22;8401;52.528;13.340;2023-11-21T05:32:52;6.60;99.90
16578;DHT22;8401;52.528;13.340;2023-11-21T05:35:18;6.70;99.90
16578;DHT22;8401;52.528;13.340;2023-11-21T05:37:45;6.50;99.90
16578;DHT22;8401;52.528;13.340;2023-11-21T05:40:11;6.50;99.90
16578;DHT22;8401;52.528;13.340;2023-11-21T05:42:39;6.60;99.90
16578;DHT22;8401;52.528;13.340;2023-11-21T05:45:06;6.50;99.90
16578;DHT22;8401;52.528;13.340;2023-11-21T05:47:45;6.60;99.90
16578;DHT22;8401;52.528;13.340;2023-11-21T05:50:13;6.40;99.90
16578;DHT22;8401;52.528;13.340;2023-11-21T05:52:42;6.60;99.90
16578;DHT22;8401;52.528;13.340;2023-11-21T05:55:09;6.40;99.90
16578;DHT22;8401;52.528;13.340;2023-11-21T05:57:35;6.30;99.90
16578;DHT22;8401;52.528;13.340;2023-11-21T06:00:11;6.10;99.90
16578;DHT22;8401;52.528;13.340;2023-11-21T06:02:57;6.30;99.90
16578;DHT22;8401;52.528;13.340;2023-11-21T06:05:25;6.50;99.90
16578;DHT22;8401;52.528;13.340;2023-11-21T06:07:51;6.50;99.90
16578;DHT22;8401;52.528;13.340;2023-11-21T06:10:19;6.40;99.90
16578;DHT22;8401;52.528;13.340;2023-11-21T06:12:45;6.20;99.90
16578;DHT22;8401;52.528;13.340;2023-11-21T06:15:11;6.30;99.90
16578;DHT22;8401;52.528;13.340;2023-11-21T06:17:39;6.40;99.90
16578;DHT22;8401;52.528;13.340;2023-11-21T06:20:06;6.30;99.90
16578;DHT22;8401;52.528;13.340;2023-11-21T06:22:40;6.30;99.90
16578;DHT22;8401;52.528;13.340;2023-11-21T06:25:07;6.40;99.90
16578;DHT22;8401;52.528;13.340;2023-11-21T06:27:34;6.20;99.90
16578;DHT22;8401;52.528;13.340;2023-11-21T06:30:01;6.10;99.90
16578;DHT22;8401;52.528;13.340;2023-11-21T06:32:27;6.10;99.90
16578;DHT22;8401;52.528;13.340;2023-11-21T06:34:58;6.10;99.90
16578;DHT22;8401;52.528;13.340;2023-11-21T06:37:27;6.20;99.90
16578;DHT22;8401;52.528;13.340;2023-11-21T06:39:53;6.10;99.90
16578;DHT22;8401;52.528;13.340;2023-11-21T06:42:19;6.10;99.90
16578;DHT22;8401;52.528;13.340;2023-11-21T06:44:45;6.10;99.90
16578;DHT22;8401;52.528;13.340;2023-11-21T06:47:11;6.00;99.90
16578;DHT22;8401;52.528;13.340;2023-11-21T06:49:36;6.10;99.90
16578;DHT22;8401;52.528;13.340;2023-11-21T06:54:53;6.00;99.90
16578;DHT22;8401;52.528;13.340;2023-11-21T06:57:19;6.00;99.90
16578;DHT22;8401;52.528;13.340;2023-11-21T06:59:45;6.00;99.90
16578;DHT22;8401;52.528;13.340;2023-11-21T07:20:18;5.90;99.90
16578;DHT22;8401;52.528;13.340;2023-11-21T07:22:43;5.90;99.90
16578;DHT22;8401;52.528;13.340;2023-11-21T07:25:09;6.00;99.90
16578;DHT22;8401;52.528;13.340;2023-11-21T07:27:35;6.20;99.90
16578;DHT22;8401;52.528;13.340;2023-11-21T07:30:03;6.10;99.90
16578;DHT22;8401;52.528;13.340;2023-11-21T07:32:31;6.00;99.90
16578;DHT22;8401;52.528;13.340;2023-11-21T07:34:56;5.90;99.90
16578;DHT22;8401;52.528;13.340;2023-11-21T07:37:23;6.00;99.90
16578;DHT22;8401;52.528;13.340;2023-11-21T07:39:49;6.20;99.90
16578;DHT22;8401;52.528;13.340;2023-11-21T07:42:14;6.20;99.90
16578;DHT22;8401;52.528;13.340;2023-11-21T07:44:40;6.00;99.90
16578;DHT22;8401;52.528;13.340;2023-11-21T07:47:06;6.20;99.90
16578;DHT22;8401;52.528;13.340;2023-11-21T07:49:32;6.20;99.90
16578;DHT22;8401;52.528;13.340;2023-11-21T07:51:57;6.10;99.90
16578;DHT22;8401;52.528;13.340;2023-11-21T07:54:23;6.00;99.90
16578;DHT22;8401;52.528;13.340;2023-11-21T07:56:48;6.10;99.90
16578;DHT22;8401;52.528;13.340;2023-11-21T07:59:14;5.90;99.90
16578;DHT22;8401;52.528;13.340;2023-11-21T08:01:40;5.90;99.90
16578;DHT22;8401;52.528;13.340;2023-11-21T08:04:06;6.10;99.90
16578;DHT22;8401;52.528;13.340;2023-11-21T08:06:32;6.20;99.90
16578;DHT22;8401;52.528;13.340;2023-11-21T08:08:58;6.00;99.90
16578;DHT22;8401;52.528;13.340;2023-11-21T08:11:24;6.10;99.90
16578;DHT22;8401;52.528;13.340;2023-11-21T08:13:50;6.10;99.90
16578;DHT22;8401;52.528;13.340;2023-11-21T08:16:15;6.00;99.90
16578;DHT22;8401;52.528;13.340;2023-11-21T08:18:42;5.90;99.90
16578;DHT22;8401;52.528;13.340;2023-11-21T08:21:07;6.10;99.90
16578;DHT22;8401;52.528;13.340;2023-11-21T08:23:34;6.30;99.90
16578;DHT22;8401;52.528;13.340;2023-11-21T08:26:00;6.40;99.90
16578;DHT22;8401;52.528;13.340;2023-11-21T08:28:27;6.20;99.90
16578;DHT22;8401;52.528;13.340;2023-11-21T08:30:53;6.20;99.90
16578;DHT22;8401;52.528;13.340;2023-11-21T08:33:19;6.10;99.90
16578;DHT22;8401;52.528;13.340;2023-11-21T08:35:45;6.00;99.90
16578;DHT22;8401;52.528;13.340;2023-11-21T08:38:12;6.00;99.90
16578;DHT22;8401;52.528;13.340;2023-11-21T08:40:38;6.00;99.90
16578;DHT22;8401;52.528;13.340;2023-11-21T08:43:03;6.00;99.90
16578;DHT22;8401;52.528;13.340;2023-11-21T08:45:30;5.90;99.90
16578;DHT22;8401;52.528;13.340;2023-11-21T08:47:56;5.90;99.90
16578;DHT22;8401;52.528;13.340;2023-11-21T08:50:22;5.90;99.90
16578;DHT22;8401;52.528;13.340;2023-11-21T08:52:48;5.90;99.90
16578;DHT22;8401;52.528;13.340;2023-11-21T08:55:14;5.90;99.90
16578;DHT22;8401;52.528;13.340;2023-11-21T08:57:41;5.90;99.90
16578;DHT22;8401;52.528;13.340;2023-11-21T09:00:09;5.80;99.90
16578;DHT22;8401;52.528;13.340;2023-11-21T09:02:40;6.00;99.90
16578;DHT22;8401;52.528;13.340;2023-11-21T09:05:09;6.10;99.90
16578;DHT22;8401;52.528;13.340;2023-11-21T09:07:36;6.10;99.90
16578;DHT22;8401;52.528;13.340;2023-11-21T09:10:03;6.20;99.90
16578;DHT22;8401;52.528;13.340;2023-11-21T09:12:28;6.10;99.90
16578;DHT22;8401;52.528;13.340;2023-11-21T09:14:54;6.10;99.90
16578;DHT22;8401;52.528;13.340;2023-11-21T09:17:20;6.00;99.90
16578;DHT22;8401;52.528;13.340;2023-11-21T09:19:45;5.80;99.90
16578;DHT22;8401;52.528;13.340;2023-11-21T09:22:15;5.80;99.90
16578;DHT22;8401;52.528;13.340;2023-11-21T09:24:41;5.80;99.90
16578;DHT22;8401;52.528;13.340;2023-11-21T09:27:07;6.00;99.90
16578;DHT22;8401;52.528;13.340;2023-11-21T09:29:33;6.20;99.90
16578;DHT22;8401;52.528;13.340;2023-11-21T09:31:59;6.40;99.90
16578;DHT22;8401;52.528;13.340;2023-11-21T09:34:25;6.30;99.90
16578;DHT22;8401;52.528;13.340;2023-11-21T09:36:52;6.30;99.90
16578;DHT22;8401;52.528;13.340;2023-11-21T09:39:18;6.50;99.90
16578;DHT22;8401;52.528;13.340;2023-11-21T09:41:52;6.40;99.90
16578;DHT22;8401;52.528;13.340;2023-11-21T09:44:45;6.40;99.90
16578;DHT22;8401;52.528;13.340;2023-11-21T09:47:14;6.40;99.90
16578;DHT22;8401;52.528;13.340;2023-11-21T09:49:44;6.50;99.90
16578;DHT22;8401;52.528;13.340;2023-11-21T09:52:22;6.50;99.90
16578;DHT22;8401;52.528;13.340;2023-11-21T09:54:50;6.30;99.90
16578;DHT22;8401;52.528;13.340;2023-11-21T09:57:16;6.40;99.90
16578;DHT22;8401;52.528;13.340;2023-11-21T09:59:43;6.10;99.90
16578;DHT22;8401;52.528;13.340;2023-11-21T10:02:10;6.10;99.90
16578;DHT22;8401;52.528;13.340;2023-11-21T10:04:39;5.80;99.90
16578;DHT22;8401;52.528;13.340;2023-11-21T10:07:05;6.00;99.90
16578;DHT22;8401;52.528;13.340;2023-11-21T10:09:36;6.00;99.90
16578;DHT22;8401;52.528;13.340;2023-11-21T10:12:05;6.00;99.90
16578;DHT22;8401;52.528;13.340;2023-11-21T10:14:32;6.00;99.90
16578;DHT22;8401;52.528;13.340;2023-11-21T10:16:58;5.90;99.90
16578;DHT22;8401;52.528;13.340;2023-11-21T10:19:25;5.70;99.90
16578;DHT22;8401;52.528;13.340;2023-11-21T10:21:52;5.70;99.90
16578;DHT22;8401;52.528;13.340;2023-11-21T10:24:19;5.90;99.90
16578;DHT22;8401;52.528;13.340;2023-11-21T10:26:45;5.70;99.90
16578;DHT22;8401;52.528;13.340;2023-11-21T10:29:14;5.70;99.90
16578;DHT22;8401;52.528;13.340;2023-11-21T10:31:42;5.80;99.90
16578;DHT22;8401;52.528;13.340;2023-11-21T10:34:15;5.70;99.90
16578;DHT22;8401;52.528;13.340;2023-11-21T10:36:42;5.50;99.90
16578;DHT22;8401;52.528;13.340;2023-11-21T10:39:08;5.60;99.90
16578;DHT22;8401;52.528;13.340;2023-11-21T10:41:35;5.60;99.90
16578;DHT22;8401;52.528;13.340;2023-11-21T10:44:04;5.60;99.90
16578;DHT22;8401;52.528;13.340;2023-11-21T10:46:30;5.60;99.90
16578;DHT22;8401;52.528;13.340;2023-11-21T10:48:57;5.80;99.90
16578;DHT22;8401;52.528;13.340;2023-11-21T10:51:22;5.60;99.90
16578;DHT22;8401;52.528;13.340;2023-11-21T10:53:51;5.60;99.90
16578;DHT22;8401;52.528;13.340;2023-11-21T10:56:18;5.60;99.90
16578;DHT22;8401;52.528;13.340;2023-11-21T10:58:50;5.60;99.90
16578;DHT22;8401;52.528;13.340;2023-11-21T11:01:19;5.50;99.90
16578;DHT22;8401;52.528;13.340;2023-11-21T11:03:49;5.40;99.90
16578;DHT22;8401;52.528;13.340;2023-11-21T11:06:16;5.40;99.90
16578;DHT22;8401;52.528;13.340;2023-11-21T11:08:42;5.60;99.90
16578;DHT22;8401;52.528;13.340;2023-11-21T11:11:08;5.60;99.90
16578;DHT22;8401;52.528;13.340;2023-11-21T11:13:35;5.70;99.90
16578;DHT22;8401;52.528;13.340;2023-11-21T11:16:01;5.70;99.90
16578;DHT22;8401;52.528;13.340;2023-11-21T11:18:31;5.30;99.90
16578;DHT22;8401;52.528;13.340;2023-11-21T11:26:54;5.50;99.90
16578;DHT22;8401;52.528;13.340;2023-11-21T11:29:50;5.40;99.90
16578;DHT22;8401;52.528;13.340;2023-11-21T11:32:55;5.50;99.90
16578;DHT22;8401;52.528;13.340;2023-11-21T11:36:13;5.40;99.90
16578;DHT22;8401;52.528;13.340;2023-11-21T11:38:34;5.50;99.90
16578;DHT22;8401;52.528;13.340;2023-11-21T11:41:05;5.60;99.90
16578;DHT22;8401;52.528;13.340;2023-11-21T11:43:31;5.70;99.90
16578;DHT22;8401;52.528;13.340;2023-11-21T11:45:59;5.70;99.90
16578;DHT22;8401;52.528;13.340;2023-11-21T11:48:25;5.50;99.90
16578;DHT22;8401;52.528;13.340;2023-11-21T11:51:04;5.60;99.90
16578;DHT22;8401;52.528;13.340;2023-11-21T11:53:38;5.30;99.90
16578;DHT22;8401;52.528;13.340;2023-11-21T11:58:47;5.30;99.90
16578;DHT22;8401;52.528;13.340;2023-11-21T12:01:20;5.50;99.90
16578;DHT22;8401;52.528;13.340;2023-11-21T12:04:26;5.60;99.90
16578;DHT22;8401;52.528;13.340;2023-11-21T12:07:00;5.50;99.90
16578;DHT22;8401;52.528;13.340;2023-11-21T12:09:29;5.50;99.90
16578;DHT22;8401;52.528;13.340;2023-11-21T12:11:56;5.30;99.90
16578;DHT22;8401;52.528;13.340;2023-11-21T12:14:25;5.20;99.90
16578;DHT22;8401;52.528;13.340;2023-11-21T12:16:51;5.20;99.90
16578;DHT22;8401;52.528;13.340;2023-11-21T12:19:17;5.30;99.90
16578;DHT22;8401;52.528;13.340;2023-11-21T12:21:43;5.40;99.90
16578;DHT22;8401;52.528;13.340;2023-11-21T12:24:14;5.50;99.90
16578;DHT22;8401;52.528;13.340;2023-11-21T12:26:41;5.60;99.90
16578;DHT22;8401;52.528;13.340;2023-11-21T12:29:08;5.60;99.90
16578;DHT22;8401;52.528;13.340;2023-11-21T12:31:34;5.60;99.90
16578;DHT22;8401;52.528;13.340;2023-11-21T12:34:00;5.60;99.90
16578;DHT22;8401;52.528;13.340;2023-11-21T12:36:26;5.60;99.90
16578;DHT22;8401;52.528;13.340;2023-11-21T12:38:52;5.50;99.90
16578;DHT22;8401;52.528;13.340;2023-11-21T12:41:17;5.50;99.90
16578;DHT22;8401;52.528;13.340;2023-11-21T12:43:43;5.50;99.90
16578;DHT22;8401;52.528;13.340;2023-11-21T12:46:10;5.30;99.90
16578;DHT22;8401;52.528;13.340;2023-11-21T12:48:42;5.40;99.90
16578;DHT22;8401;52.528;13.340;2023-11-21T12:51:09;5.60;99.90
16578;DHT22;8401;52.528;13.340;2023-11-21T12:53:36;5.60;99.90
16578;DHT22;8401;52.528;13.340;2023-11-21T12:56:10;5.40;99.90
16578;DHT22;8401;52.528;13.340;2023-11-21T12:58:40;5.40;99.90
16578;DHT22;8401;52.528;13.340;2023-11-21T13:01:10;5.40;99.90
16578;DHT22;8401;52.528;13.340;2023-11-21T13:03:38;5.60;99.90
16578;DHT22;8401;52.528;13.340;2023-11-21T13:06:06;5.60;99.90
16578;DHT22;8401;52.528;13.340;2023-11-21T13:08:33;5.50;99.90
16578;DHT22;8401;52.528;13.340;2023-11-21T13:11:00;5.40;99.90
16578;DHT22;8401;52.528;13.340;2023-11-21T13:13:28;5.30;99.90
16578;DHT22;8401;52.528;13.340;2023-11-21T13:16:01;5.30;99.90
16578;DHT22;8401;52.528;13.340;2023-11-21T13:18:30;5.40;99.90
16578;DHT22;8401;52.528;13.340;2023-11-21T13:20:58;5.30;99.90
16578;DHT22;8401;52.528;13.340;2023-11-21T13:23:24;5.10;99.90
16578;DHT22;8401;52.528;13.340;2023-11-21T13:25:51;5.40;99.90
16578;DHT22;8401;52.528;13.340;2023-11-21T13:28:17;5.40;99.90
16578;DHT22;8401;52.528;13.340;2023-11-21T13:30:50;5.20;99.90
16578;DHT22;8401;52.528;13.340;2023-11-21T13:33:18;5.20;99.90
16578;DHT22;8401;52.528;13.340;2023-11-21T13:35:47;5.20;99.90
16578;DHT22;8401;52.528;13.340;2023-11-21T13:38:18;5.00;99.90
16578;DHT22;8401;52.528;13.340;2023-11-21T13:40:49;5.20;99.90
16578;DHT22;8401;52.528;13.340;2023-11-21T13:43:18;5.30;99.90
16578;DHT22;8401;52.528;13.340;2023-11-21T13:45:46;5.30;99.90
16578;DHT22;8401;52.528;13.340;2023-11-21T13:48:13;5.40;99.90
16578;DHT22;8401;52.528;13.340;2023-11-21T13:50:50;5.40;99.90
16578;DHT22;8401;52.528;13.340;2023-11-21T13:53:34;5.30;99.90
16578;DHT22;8401;52.528;13.340;2023-11-21T13:56:02;5.20;99.90
16578;DHT22;8401;52.528;13.340;2023-11-21T13:58:28;5.30;99.90
16578;DHT22;8401;52.528;13.340;2023-11-21T14:01:07;5.30;99.90
16578;DHT22;8401;52.528;13.340;2023-11-21T14:03:50;5.40;99.90
16578;DHT22;8401;52.528;13.340;2023-11-21T14:06:22;5.30;99.90
16578;DHT22;8401;52.528;13.340;2023-11-21T14:08:52;5.40;99.90
16578;DHT22;8401;52.528;13.340;2023-11-21T14:11:22;5.20;99.90
16578;DHT22;8401;52.528;13.340;2023-11-21T14:13:47;4.90;99.90
16578;DHT22;8401;52.528;13.340;2023-11-21T14:16:14;4.90;99.90
16578;DHT22;8401;52.528;13.340;2023-11-21T14:18:42;4.90;99.90
16578;DHT22;8401;52.528;13.340;2023-11-21T14:21:18;5.00;99.90
16578;DHT22;8401;52.528;13.340;2023-11-21T14:23:44;5.00;99.90
16578;DHT22;8401;52.528;13.340;2023-11-21T14:26:11;5.00;99.90
16578;DHT22;8401;52.528;13.340;2023-11-21T14:28:39;4.90;99.90
16578;DHT22;8401;52.528;13.340;2023-11-21T14:31:05;4.90;99.90
16578;DHT22;8401;52.528;13.340;2023-11-21T14:33:30;4.80;99.90
16578;DHT22;8401;52.528;13.340;2023-11-21T14:35:57;4.70;99.90
16578;DHT22;8401;52.528;13.340;2023-11-21T14:38:23;4.80;99.90
16578;DHT22;8401;52.528;13.340;2023-11-21T14:40:48;4.80;99.90
16578;DHT22;8401;52.528;13.340;2023-11-21T14:43:15;4.40;99.90
16578;DHT22;8401;52.528;13.340;2023-11-21T14:45:41;4.70;99.90
16578;DHT22;8401;52.528;13.340;2023-11-21T14:48:06;4.50;99.90
16578;DHT22;8401;52.528;13.340;2023-11-21T14:50:42;4.30;99.90
16578;DHT22;8401;52.528;13.340;2023-11-21T14:53:08;4.30;99.90
16578;DHT22;8401;52.528;13.340;2023-11-21T14:55:35;4.30;99.90
16578;DHT22;8401;52.528;13.340;2023-11-21T14:58:16;4.20;99.90
16578;DHT22;8401;52.528;13.340;2023-11-21T15:00:55;4.20;99.90
16578;DHT22;8401;52.528;13.340;2023-11-21T15:03:28;4.10;99.90
16578;DHT22;8401;52.528;13.340;2023-11-21T15:06:00;4.30;99.90
16578;DHT22;8401;52.528;13.340;2023-11-21T15:08:48;4.30;99.90
16578;DHT22;8401;52.528;13.340;2023-11-21T15:11:14;4.20;99.90
16578;DHT22;8401;52.528;13.340;2023-11-21T15:13:41;4.20;99.90
16578;DHT22;8401;52.528;13.340;2023-11-21T15:16:08;4.00;99.90
16578;DHT22;8401;52.528;13.340;2023-11-21T15:18:35;4.00;99.90
16578;DHT22;8401;52.528;13.340;2023-11-21T15:21:01;4.30;99.90
16578;DHT22;8401;52.528;13.340;2023-11-21T15:23:29;4.30;99.90
16578;DHT22;8401;52.528;13.340;2023-11-21T15:25:57;4.50;99.90
16578;DHT22;8401;52.528;13.340;2023-11-21T15:28:23;4.50;99.90
16578;DHT22;8401;52.528;13.340;2023-11-21T15:30:50;4.30;99.90
16578;DHT22;8401;52.528;13.340;2023-11-21T15:33:17;4.20;99.90
16578;DHT22;8401;52.528;13.340;2023-11-21T15:35:43;4.00;99.90
16578;DHT22;8401;52.528;13.340;2023-11-21T15:38:08;4.10;99.90
16578;DHT22;8401;52.528;13.340;2023-11-21T15:40:34;4.00;99.90
16578;DHT22;8401;52.528;13.340;2023-11-21T15:43:00;4.10;99.90
16578;DHT22;8401;52.528;13.340;2023-11-21T15:45:28;4.00;99.90
16578;DHT22;8401;52.528;13.340;2023-11-21T15:47:54;3.90;99.90
16578;DHT22;8401;52.528;13.340;2023-11-21T15:50:21;4.00;99.90
16578;DHT22;8401;52.528;13.340;2023-11-21T15:52:46;4.10;99.90
16578;DHT22;8401;52.528;13.340;2023-11-21T15:55:12;4.20;99.90
16578;DHT22;8401;52.528;13.340;2023-11-21T15:57:38;4.00;99.90
16578;DHT22;8401;52.528;13.340;2023-11-21T16:00:05;3.90;99.90
16578;DHT22;8401;52.528;13.340;2023-11-21T16:02:36;4.00;99.90
16578;DHT22;8401;52.528;13.340;2023-11-21T16:05:04;4.00;99.90
16578;DHT22;8401;52.528;13.340;2023-11-21T16:07:30;3.90;99.90
16578;DHT22;8401;52.528;13.340;2023-11-21T16:09:56;4.00;99.90
16578;DHT22;8401;52.528;13.340;2023-11-21T16:12:23;4.10;99.90
16578;DHT22;8401;52.528;13.340;2023-11-21T16:14:48;4.00;99.90
16578;DHT22;8401;52.528;13.340;2023-11-21T16:17:15;4.00;99.90